createdAt,value
2018-11-03T00:01:00.229Z,11.73
2018-11-03T00:03:35.070Z,9.03
2018-11-03T00:06:09.514Z,11.03
2018-11-03T00:08:39.479Z,10.67
2018-11-03T00:11:08.388Z,9.00
2018-11-03T00:13:37.266Z,9.73
2018-11-03T00:16:22.243Z,12.80
2018-11-03T00:18:51.136Z,10.87
2018-11-03T00:21:20.029Z,11.50
2018-11-03T00:23:48.994Z,9.93
2018-11-03T00:26:17.876Z,11.23
2018-11-03T00:28:57.389Z,9.57
2018-11-03T00:31:30.000Z,11.17
2018-11-03T00:33:58.859Z,9.40
2018-11-03T00:36:30.976Z,9.43
2018-11-03T00:38:59.922Z,10.27
2018-11-03T00:41:28.763Z,8.57
2018-11-03T00:43:59.727Z,11.90
2018-11-03T00:46:28.589Z,9.97
2018-11-03T00:49:01.485Z,7.43
2018-11-03T00:51:46.349Z,10.73
2018-11-03T00:54:15.233Z,10.10
2018-11-03T00:56:50.598Z,8.30
2018-11-03T00:59:21.470Z,12.07
2018-11-03T01:01:50.352Z,10.53
2018-11-03T01:04:19.240Z,11.27
2018-11-03T01:06:48.195Z,10.67
2018-11-03T01:09:17.071Z,11.87
2018-11-03T01:11:48.044Z,11.53
2018-11-03T01:14:16.915Z,9.87
2018-11-03T01:16:46.814Z,8.90
2018-11-03T01:19:15.666Z,10.37
2018-11-03T01:21:44.540Z,9.30
2018-11-03T01:24:13.420Z,10.00
2018-11-03T01:26:47.072Z,11.00
2018-11-03T01:29:15.922Z,10.70
2018-11-03T01:31:44.827Z,11.40
2018-11-03T01:37:10.907Z,9.80
2018-11-03T01:39:39.835Z,10.13
2018-11-03T01:42:08.699Z,9.77
2018-11-03T01:44:37.605Z,8.53
2018-11-03T01:47:10.252Z,10.40
2018-11-03T01:49:47.703Z,10.63
2018-11-03T01:52:16.583Z,9.17
2018-11-03T01:54:45.448Z,9.63
2018-11-03T01:57:14.329Z,10.70
2018-11-03T01:59:43.206Z,8.57
2018-11-03T02:02:12.130Z,12.50
2018-11-03T02:04:41.188Z,11.67
2018-11-03T02:07:20.974Z,13.57
2018-11-03T02:09:49.845Z,11.90
2018-11-03T02:12:18.736Z,9.77
2018-11-03T02:17:53.157Z,14.80
2018-11-03T02:20:22.006Z,11.13
2018-11-03T02:22:54.066Z,14.47
2018-11-03T02:25:22.925Z,13.53
2018-11-03T02:27:51.811Z,13.17
2018-11-03T02:30:22.989Z,10.83
2018-11-03T02:32:52.122Z,13.50
2018-11-03T02:35:26.106Z,12.97
2018-11-03T02:37:55.209Z,13.60
2018-11-03T02:40:25.056Z,15.67
2018-11-03T02:42:53.902Z,13.33
2018-11-03T02:45:22.861Z,11.57
2018-11-03T02:47:51.727Z,14.77
2018-11-03T02:50:20.572Z,9.17
2018-11-03T02:53:03.939Z,12.60
2018-11-03T02:55:32.833Z,12.07
2018-11-03T02:58:01.743Z,10.57
2018-11-03T03:03:30.599Z,11.90
2018-11-03T03:06:00.573Z,12.87
2018-11-03T03:08:32.863Z,12.07
2018-11-03T03:11:23.836Z,13.50
2018-11-03T03:13:52.729Z,11.23
2018-11-03T03:16:21.641Z,10.90
2018-11-03T03:18:50.508Z,11.27
2018-11-03T03:21:24.340Z,12.20
2018-11-03T03:23:53.238Z,11.77
2018-11-03T03:26:22.079Z,11.57
2018-11-03T03:28:58.091Z,12.63
2018-11-03T03:31:37.440Z,11.87
2018-11-03T03:34:09.476Z,13.03
2018-11-03T03:36:51.134Z,12.00
2018-11-03T03:42:18.853Z,11.50
2018-11-03T03:44:47.738Z,12.60
2018-11-03T03:47:22.519Z,9.83
2018-11-03T03:49:54.752Z,12.67
2018-11-03T03:52:23.659Z,11.83
2018-11-03T03:54:56.088Z,12.43
2018-11-03T03:57:25.205Z,15.73
2018-11-03T03:59:54.138Z,14.73
2018-11-03T04:02:26.864Z,10.33
2018-11-03T04:04:57.790Z,10.87
2018-11-03T04:10:24.264Z,12.43
2018-11-03T04:12:53.159Z,10.30
2018-11-03T04:18:19.828Z,10.47
2018-11-03T04:20:48.725Z,12.90
2018-11-03T04:23:17.628Z,11.20
2018-11-03T04:25:46.481Z,14.03
2018-11-03T04:28:33.579Z,14.83
2018-11-03T04:31:02.438Z,10.70
2018-11-03T04:33:31.307Z,12.20
2018-11-03T04:36:00.168Z,8.90
2018-11-03T04:38:32.652Z,13.17
2018-11-03T04:41:01.571Z,11.60
2018-11-03T04:43:30.454Z,12.47
2018-11-03T04:45:59.368Z,11.13
2018-11-03T04:48:38.121Z,11.10
2018-11-03T04:51:07.352Z,12.87
2018-11-03T04:53:36.201Z,13.30
2018-11-03T04:56:17.000Z,12.20
2018-11-03T04:58:45.915Z,11.07
2018-11-03T05:01:21.653Z,13.13
2018-11-03T05:03:50.644Z,12.20
2018-11-03T05:06:19.520Z,11.27
2018-11-03T05:09:05.299Z,14.70
2018-11-03T05:11:37.485Z,11.50
2018-11-03T05:14:07.194Z,12.93
2018-11-03T05:16:36.267Z,15.13
2018-11-03T05:19:05.597Z,15.93
2018-11-03T05:21:34.586Z,16.50
2018-11-03T05:24:03.461Z,14.67
2018-11-03T05:26:32.309Z,12.83
2018-11-03T05:29:01.151Z,13.23
2018-11-03T05:31:30.039Z,15.53
2018-11-03T05:34:06.650Z,16.33
2018-11-03T05:36:41.022Z,13.67
2018-11-03T05:39:11.497Z,13.43
2018-11-03T05:41:40.741Z,11.80
2018-11-03T05:44:13.369Z,12.47
2018-11-03T05:46:42.475Z,14.40
2018-11-03T05:49:11.298Z,13.23
2018-11-03T05:51:40.184Z,15.37
2018-11-03T05:54:26.703Z,11.13
2018-11-03T05:56:58.786Z,13.57
2018-11-03T05:59:27.667Z,14.47
2018-11-03T06:01:57.596Z,13.47
2018-11-03T06:04:40.139Z,18.60
2018-11-03T06:07:10.037Z,11.90
2018-11-03T06:09:38.892Z,15.53
2018-11-03T06:12:13.360Z,12.37
2018-11-03T06:15:00.631Z,12.87
2018-11-03T06:17:29.512Z,11.97
2018-11-03T06:19:58.422Z,15.90
2018-11-03T06:25:20.685Z,13.03
2018-11-03T06:27:57.339Z,12.50
2018-11-03T06:30:26.261Z,14.57
2018-11-03T06:32:55.118Z,17.13
2018-11-03T06:35:43.374Z,13.17
2018-11-03T06:38:32.023Z,15.13
2018-11-03T06:41:00.903Z,14.37
2018-11-03T06:43:29.812Z,13.97
2018-11-03T06:46:10.603Z,15.17
2018-11-03T06:48:45.554Z,16.10
2018-11-03T06:51:14.450Z,14.13
2018-11-03T06:53:43.318Z,15.07
2018-11-03T06:56:12.247Z,15.50
2018-11-03T06:58:42.250Z,17.57
2018-11-03T07:01:11.122Z,14.57
2018-11-03T07:03:40.007Z,14.87
2018-11-03T07:06:09.930Z,13.50
2018-11-03T07:08:38.774Z,14.90
2018-11-03T07:11:07.658Z,16.43
2018-11-03T07:13:36.543Z,17.07
2018-11-03T07:16:19.524Z,18.03
2018-11-03T07:18:48.451Z,13.43
2018-11-03T07:24:34.176Z,12.50
2018-11-03T07:27:21.074Z,16.50
2018-11-03T07:29:55.091Z,15.20
2018-11-03T07:32:27.289Z,15.50
2018-11-03T07:34:56.197Z,15.53
2018-11-03T07:37:25.088Z,16.10
2018-11-03T07:40:06.071Z,20.57
2018-11-03T07:42:35.068Z,17.17
2018-11-03T07:45:08.344Z,16.73
2018-11-03T07:47:42.045Z,17.93
2018-11-03T07:50:12.354Z,16.70
2018-11-03T07:52:43.752Z,18.40
2018-11-03T07:55:22.665Z,18.47
2018-11-03T07:58:15.179Z,18.43
2018-11-03T08:00:44.228Z,21.87
2018-11-03T08:03:35.300Z,18.03
2018-11-03T08:06:04.181Z,18.40
2018-11-03T08:08:34.120Z,19.63
2018-11-03T08:11:11.158Z,18.63
2018-11-03T08:13:42.116Z,19.87
2018-11-03T08:16:22.985Z,17.27
2018-11-03T08:18:55.188Z,20.17
2018-11-03T08:21:24.119Z,19.70
2018-11-03T08:23:57.561Z,21.17
2018-11-03T08:26:36.179Z,19.17
2018-11-03T08:29:11.456Z,18.97
2018-11-03T08:31:44.250Z,23.23
2018-11-03T08:34:18.324Z,20.77
2018-11-03T08:36:50.342Z,18.17
2018-11-03T08:39:38.194Z,20.10
2018-11-03T08:42:13.450Z,16.43
2018-11-03T08:44:46.908Z,23.53
2018-11-03T08:47:15.836Z,21.93
2018-11-03T08:49:52.541Z,24.07
2018-11-03T08:52:21.448Z,21.63
2018-11-03T08:54:50.324Z,23.43
2018-11-03T08:57:19.189Z,21.93
2018-11-03T08:59:53.764Z,20.53
2018-11-03T09:02:24.530Z,20.80
2018-11-03T09:04:53.448Z,24.30
2018-11-03T09:07:35.314Z,19.23
2018-11-03T09:10:15.409Z,21.30
2018-11-03T09:12:50.335Z,21.93
2018-11-03T09:15:20.387Z,20.70
2018-11-03T09:17:57.228Z,20.97
2018-11-03T09:20:26.211Z,26.07
2018-11-03T09:22:57.204Z,22.17
2018-11-03T09:25:27.200Z,23.37
2018-11-03T09:28:00.979Z,22.13
2018-11-03T09:30:48.074Z,21.10
2018-11-03T09:33:20.136Z,19.87
2018-11-03T09:35:51.079Z,20.93
2018-11-03T09:38:24.223Z,22.20
2018-11-03T09:40:57.291Z,19.70
2018-11-03T09:43:40.103Z,20.50
2018-11-03T09:46:29.667Z,21.50
2018-11-03T09:48:58.555Z,25.53
2018-11-03T09:51:28.477Z,22.03
2018-11-03T09:53:59.404Z,22.63
2018-11-03T09:56:47.086Z,23.40
2018-11-03T09:59:30.004Z,26.90
2018-11-03T10:02:00.916Z,22.67
2018-11-03T10:04:30.012Z,21.80
2018-11-03T10:06:59.015Z,29.97
2018-11-03T10:09:44.466Z,21.13
2018-11-03T10:12:14.412Z,21.73
2018-11-03T10:14:43.378Z,24.37
2018-11-03T10:17:18.854Z,24.40
2018-11-03T10:19:48.841Z,24.37
2018-11-03T10:22:21.971Z,22.60
2018-11-03T10:24:55.770Z,22.20
2018-11-03T10:27:26.693Z,24.90
2018-11-03T10:32:52.356Z,20.50
2018-11-03T10:35:36.352Z,22.70
2018-11-03T10:38:11.698Z,23.00
2018-11-03T10:40:48.226Z,20.07
2018-11-03T10:43:23.092Z,19.73
2018-11-03T10:46:05.522Z,26.07
2018-11-03T10:48:52.266Z,21.50
2018-11-03T10:51:38.467Z,21.53
2018-11-03T10:54:15.912Z,24.23
2018-11-03T10:57:00.240Z,25.43
2018-11-03T10:59:36.310Z,21.10
2018-11-03T11:02:17.591Z,21.70
2018-11-03T11:04:57.725Z,20.20
2018-11-03T11:07:32.101Z,21.27
2018-11-03T11:10:11.000Z,19.30
2018-11-03T11:12:47.937Z,19.67
2018-11-03T11:15:20.848Z,19.10
2018-11-03T11:17:49.801Z,19.40
2018-11-03T11:20:19.211Z,20.20
2018-11-03T11:22:48.610Z,21.23
2018-11-03T11:25:17.943Z,18.00
2018-11-03T11:27:48.587Z,16.10
2018-11-03T11:30:20.906Z,17.57
2018-11-03T11:32:50.072Z,21.07
2018-11-03T11:35:19.566Z,17.47
2018-11-03T11:37:52.501Z,17.97
2018-11-03T11:40:26.750Z,16.67
2018-11-03T11:42:57.310Z,15.40
2018-11-03T11:45:27.187Z,17.90
2018-11-03T11:48:13.120Z,14.33
2018-11-03T11:50:47.320Z,17.63
2018-11-03T11:53:17.323Z,15.53
2018-11-03T11:55:46.216Z,15.60
2018-11-03T11:58:22.657Z,13.77
2018-11-03T12:00:52.605Z,12.53
2018-11-03T12:03:22.553Z,14.37
2018-11-03T12:05:57.598Z,12.87
2018-11-03T12:08:30.820Z,13.43
2018-11-03T12:10:59.784Z,14.63
2018-11-03T12:13:29.812Z,13.90
2018-11-03T12:15:58.780Z,12.97
2018-11-03T12:18:27.797Z,14.13
2018-11-03T12:20:58.140Z,10.40
2018-11-03T12:23:27.637Z,16.00
2018-11-03T12:26:00.174Z,12.33
2018-11-03T12:28:33.345Z,12.57
2018-11-03T12:31:07.272Z,16.33
2018-11-03T12:33:41.460Z,13.70
2018-11-03T12:36:11.857Z,13.50
2018-11-03T12:39:00.048Z,14.33
2018-11-03T12:41:30.594Z,18.50
2018-11-03T12:43:59.836Z,14.23
2018-11-03T12:49:32.874Z,18.90
2018-11-03T12:52:06.214Z,13.20
2018-11-03T12:54:45.987Z,14.50
2018-11-03T12:57:20.277Z,14.87
2018-11-03T12:59:54.879Z,13.90
2018-11-03T13:02:25.075Z,13.37
2018-11-03T13:04:54.779Z,11.63
2018-11-03T13:07:24.097Z,13.67
2018-11-03T13:09:55.070Z,12.17
2018-11-03T13:12:26.003Z,13.43
2018-11-03T13:14:56.021Z,12.90
2018-11-03T13:17:26.005Z,11.87
2018-11-03T13:20:00.579Z,13.00
2018-11-03T13:22:39.486Z,11.20
2018-11-03T13:25:08.895Z,9.83
2018-11-03T13:27:38.050Z,14.57
2018-11-03T13:30:21.713Z,12.33
2018-11-03T13:32:58.774Z,13.70
2018-11-03T13:35:28.095Z,14.23
2018-11-03T13:37:59.559Z,11.23
2018-11-03T13:40:35.251Z,11.13
2018-11-03T13:43:07.555Z,11.27
2018-11-03T13:45:37.493Z,13.20
2018-11-03T13:48:06.390Z,12.47
2018-11-03T13:50:35.340Z,14.30
2018-11-03T13:53:04.330Z,11.83
2018-11-03T13:55:33.290Z,12.43
2018-11-03T13:58:19.524Z,13.77
2018-11-03T14:01:06.973Z,13.10
2018-11-03T14:03:42.112Z,13.70
2018-11-03T14:06:12.381Z,11.23
2018-11-03T14:08:41.976Z,14.23
2018-11-03T14:11:11.625Z,13.83
2018-11-03T14:13:45.929Z,16.20
2018-11-03T14:19:14.375Z,12.63
2018-11-03T14:21:44.363Z,13.40
2018-11-03T14:24:13.499Z,13.53
2018-11-03T14:26:42.421Z,15.70
2018-11-03T14:29:21.776Z,13.07
2018-11-03T14:31:50.725Z,12.27
2018-11-03T14:34:20.172Z,13.00
2018-11-03T14:36:53.661Z,14.30
2018-11-03T14:39:22.563Z,15.57
2018-11-03T14:41:51.487Z,18.70
2018-11-03T14:44:20.515Z,11.77
2018-11-03T14:46:50.555Z,13.83
2018-11-03T14:49:19.378Z,13.50
2018-11-03T14:51:48.286Z,14.03
2018-11-03T14:54:17.172Z,16.37
2018-11-03T14:56:46.096Z,16.43
2018-11-03T14:59:18.549Z,14.03
2018-11-03T15:01:54.577Z,14.90
2018-11-03T15:04:33.196Z,14.33
2018-11-03T15:07:06.989Z,13.40
2018-11-03T15:09:41.976Z,11.70
2018-11-03T15:12:30.442Z,12.50
2018-11-03T15:14:59.350Z,17.53
2018-11-03T15:17:28.316Z,12.37
2018-11-03T15:19:57.220Z,13.73
2018-11-03T15:22:26.205Z,15.57
2018-11-03T15:24:55.052Z,13.90
2018-11-03T15:27:23.931Z,12.00
2018-11-03T15:30:01.117Z,11.67
2018-11-03T15:32:41.062Z,12.23
2018-11-03T15:35:24.689Z,15.23
2018-11-03T15:38:01.696Z,11.33
2018-11-03T15:40:31.171Z,15.90
2018-11-03T15:43:00.022Z,12.83
2018-11-03T15:45:28.969Z,14.00
2018-11-03T15:48:02.472Z,11.30
2018-11-03T15:50:31.458Z,12.33
2018-11-03T15:53:00.484Z,14.20
2018-11-03T15:55:31.374Z,13.37
2018-11-03T15:58:00.262Z,20.17
2018-11-03T16:00:31.420Z,12.37
2018-11-03T16:03:00.436Z,15.93
2018-11-03T16:05:29.418Z,15.87
2018-11-03T16:08:08.872Z,14.10
2018-11-03T16:10:42.564Z,15.53
2018-11-03T16:13:16.785Z,12.87
2018-11-03T16:15:49.532Z,11.07
2018-11-03T16:18:20.699Z,14.40
2018-11-03T16:20:50.743Z,11.23
2018-11-03T16:23:20.040Z,15.73
2018-11-03T16:25:51.132Z,12.90
2018-11-03T16:28:27.774Z,11.77
2018-11-03T16:30:57.664Z,12.87
2018-11-03T16:33:29.566Z,11.60
2018-11-03T16:35:59.950Z,13.53
2018-11-03T16:38:29.071Z,16.00
2018-11-03T16:40:57.854Z,12.20
2018-11-03T16:43:29.806Z,15.53
2018-11-03T16:45:59.777Z,14.47
2018-11-03T16:48:34.606Z,14.03
2018-11-03T16:51:16.946Z,14.43
2018-11-03T16:53:56.506Z,12.07
2018-11-03T16:56:30.807Z,12.80
2018-11-03T16:59:11.841Z,11.03
2018-11-03T17:01:41.823Z,11.53
2018-11-03T17:04:21.976Z,9.33
2018-11-03T17:06:57.211Z,16.47
2018-11-03T17:09:27.124Z,12.57
2018-11-03T17:11:56.173Z,13.10
2018-11-03T17:14:25.150Z,10.33
2018-11-03T17:16:54.509Z,12.27
2018-11-03T17:19:25.949Z,8.63
2018-11-03T17:21:55.950Z,12.63
2018-11-03T17:24:26.363Z,12.97
2018-11-03T17:26:55.879Z,11.60
2018-11-03T17:29:25.286Z,11.40
2018-11-03T17:32:02.230Z,10.60
2018-11-03T17:34:35.486Z,13.27
2018-11-03T17:37:05.187Z,11.17
2018-11-03T17:39:40.699Z,11.80
2018-11-03T17:42:09.632Z,12.17
2018-11-03T17:44:38.634Z,9.20
2018-11-03T17:47:08.833Z,13.90
2018-11-03T17:49:38.772Z,10.80
2018-11-03T17:52:11.102Z,15.80
2018-11-03T17:54:43.421Z,10.77
2018-11-03T17:57:13.876Z,13.53
2018-11-03T17:59:43.818Z,9.33
2018-11-03T18:02:12.835Z,10.17
2018-11-03T18:04:41.879Z,11.23
2018-11-03T18:07:10.778Z,11.17
2018-11-03T18:09:44.586Z,10.27
2018-11-03T18:12:17.573Z,13.83
2018-11-03T18:14:48.613Z,12.93
2018-11-03T18:17:21.316Z,12.97
2018-11-03T18:19:51.289Z,11.53
2018-11-03T18:22:22.151Z,11.83
2018-11-03T18:24:51.048Z,11.37
2018-11-03T18:27:19.964Z,10.97
2018-11-03T18:29:53.772Z,14.83
2018-11-03T18:32:30.346Z,13.27
2018-11-03T18:35:04.747Z,14.10
2018-11-03T18:37:35.738Z,12.00
2018-11-03T18:40:18.258Z,10.50
2018-11-03T18:42:59.456Z,14.43
2018-11-03T18:45:41.045Z,12.57
2018-11-03T18:48:12.012Z,12.93
2018-11-03T18:50:41.158Z,14.03
2018-11-03T18:53:10.108Z,14.20
2018-11-03T18:55:40.003Z,13.83
2018-11-03T18:58:10.298Z,11.03
2018-11-03T19:00:45.451Z,11.30
2018-11-03T19:03:14.844Z,10.87
2018-11-03T19:05:44.136Z,11.80
2018-11-03T19:08:13.581Z,13.90
2018-11-03T19:10:46.915Z,13.57
2018-11-03T19:13:25.905Z,12.07
2018-11-03T19:15:57.367Z,11.20
2018-11-03T19:18:31.206Z,15.00
2018-11-03T19:21:06.185Z,12.40
2018-11-03T19:23:39.339Z,12.00
2018-11-03T19:26:25.648Z,11.63
2018-11-03T19:28:55.783Z,15.07
2018-11-03T19:31:24.645Z,14.63
2018-11-03T19:33:53.606Z,13.70
2018-11-03T19:36:23.481Z,14.17
2018-11-03T19:38:52.398Z,16.00
2018-11-03T19:41:23.344Z,15.80
2018-11-03T19:43:57.560Z,13.63
2018-11-03T19:46:27.446Z,13.43
2018-11-03T19:49:00.662Z,15.10
2018-11-03T19:51:35.747Z,15.10
2018-11-03T19:54:05.293Z,15.20
2018-11-03T19:56:35.617Z,17.00
2018-11-03T19:59:05.226Z,16.00
2018-11-03T20:01:38.152Z,14.07
2018-11-03T20:04:19.240Z,13.40
2018-11-03T20:06:51.948Z,14.00
2018-11-03T20:09:24.645Z,16.20
2018-11-03T20:12:01.004Z,15.03
2018-11-03T20:14:33.620Z,13.33
2018-11-03T20:17:07.506Z,13.63
2018-11-03T20:22:31.903Z,13.73
2018-11-03T20:25:11.782Z,13.70
2018-11-03T20:27:56.915Z,12.83
2018-11-03T20:30:28.920Z,12.73
2018-11-03T20:33:02.908Z,14.23
2018-11-03T20:38:29.871Z,14.43
2018-11-03T20:41:11.768Z,13.20
2018-11-03T20:43:45.057Z,14.40
2018-11-03T20:46:24.402Z,12.63
2018-11-03T20:48:54.928Z,10.93
2018-11-03T20:51:31.969Z,13.23
2018-11-03T20:54:02.963Z,16.67
2018-11-03T20:56:35.755Z,14.83
2018-11-03T20:59:13.074Z,13.33
2018-11-03T21:01:42.446Z,17.60
2018-11-03T21:04:26.391Z,14.30
2018-11-03T21:06:55.891Z,14.37
2018-11-03T21:09:26.242Z,11.97
2018-11-03T21:11:58.908Z,11.60
2018-11-03T21:14:29.842Z,15.50
2018-11-03T21:17:06.761Z,12.60
2018-11-03T21:19:47.213Z,12.43
2018-11-03T21:22:40.215Z,13.10
2018-11-03T21:25:16.374Z,13.00
2018-11-03T21:27:53.696Z,11.33
2018-11-03T21:30:27.669Z,12.30
2018-11-03T21:32:57.712Z,12.27
2018-11-03T21:35:29.951Z,13.97
2018-11-03T21:38:13.456Z,10.97
2018-11-03T21:40:42.883Z,11.60
2018-11-03T21:43:20.163Z,10.50
2018-11-03T21:45:51.690Z,10.47
2018-11-03T21:48:31.542Z,11.80
2018-11-03T21:51:07.149Z,12.20
2018-11-03T21:53:40.137Z,10.73
2018-11-03T21:56:14.676Z,12.03
2018-11-03T21:59:06.856Z,9.90
2018-11-03T22:01:35.785Z,11.90
2018-11-03T22:04:06.753Z,11.10
2018-11-03T22:06:50.272Z,10.93
2018-11-03T22:12:17.271Z,10.67
2018-11-03T22:15:04.662Z,11.13
2018-11-03T22:17:37.381Z,12.97
2018-11-03T22:20:16.499Z,9.40
2018-11-03T22:23:04.472Z,12.73
2018-11-03T22:25:33.377Z,15.13
2018-11-03T22:28:04.384Z,10.67
2018-11-03T22:30:33.476Z,11.07
2018-11-03T22:33:08.834Z,14.20
2018-11-03T22:38:32.246Z,12.40
2018-11-03T22:41:15.624Z,13.80
2018-11-03T22:43:49.688Z,10.87
2018-11-03T22:46:28.236Z,15.20
2018-11-03T22:49:04.899Z,12.90
2018-11-03T22:54:27.300Z,15.43
2018-11-03T22:56:56.203Z,15.43
2018-11-03T22:59:30.842Z,12.40
2018-11-03T23:01:59.795Z,14.13
2018-11-03T23:04:34.448Z,13.47
2018-11-03T23:07:10.376Z,12.20
2018-11-03T23:09:41.376Z,12.83
2018-11-03T23:12:10.417Z,11.00
2018-11-03T23:14:39.365Z,14.17
2018-11-03T23:17:08.325Z,13.40
2018-11-03T23:19:48.464Z,14.73
2018-11-03T23:25:12.400Z,12.17
2018-11-03T23:27:41.486Z,15.23
2018-11-03T23:30:16.649Z,14.17
2018-11-03T23:32:47.397Z,13.93
2018-11-03T23:35:23.135Z,17.37
2018-11-03T23:40:48.629Z,17.17
2018-11-03T23:43:17.514Z,14.73
2018-11-03T23:45:46.484Z,13.93
2018-11-03T23:48:15.429Z,14.93
2018-11-03T23:50:46.356Z,13.27
2018-11-03T23:53:37.449Z,13.47
2018-11-03T23:56:06.516Z,16.53
2018-11-03T23:58:40.146Z,16.07
